sensor_id;sensor_type;location;lat;lon;timestamp;temperature;humidity
43651;DHT22;29247;50.944;5.382;2023-07-28T00:01:04;19.70;96.80
43651;DHT22;29247;50.944;5.382;2023-07-28T00:03:32;19.70;96.80
43651;DHT22;29247;50.944;5.382;2023-07-28T00:06:03;19.70;96.80
43651;DHT22;29247;50.944;5.382;2023-07-28T00:08:29;19.70;96.80
43651;DHT22;29247;50.944;5.382;2023-07-28T00:10:57;19.70;96.80
43651;DHT22;29247;50.944;5.382;2023-07-28T00:13:22;19.70;96.80
43651;DHT22;29247;50.944;5.382;2023-07-28T00:15:48;19.70;96.80
43651;DHT22;29247;50.944;5.382;2023-07-28T00:18:13;19.70;96.80
43651;DHT22;29247;50.944;5.382;2023-07-28T00:20:39;19.70;96.80
43651;DHT22;29247;50.944;5.382;2023-07-28T00:23:07;19.70;96.80
43651;DHT22;29247;50.944;5.382;2023-07-28T00:25:33;19.70;96.80
43651;DHT22;29247;50.944;5.382;2023-07-28T00:27:58;19.70;96.90
43651;DHT22;29247;50.944;5.382;2023-07-28T00:30:24;19.70;96.90
43651;DHT22;29247;50.944;5.382;2023-07-28T00:32:50;19.70;96.90
43651;DHT22;29247;50.944;5.382;2023-07-28T00:35:16;19.70;96.90
43651;DHT22;29247;50.944;5.382;2023-07-28T00:37:42;19.70;96.90
43651;DHT22;29247;50.944;5.382;2023-07-28T00:40:08;19.70;96.90
43651;DHT22;29247;50.944;5.382;2023-07-28T00:42:36;19.70;96.90
43651;DHT22;29247;50.944;5.382;2023-07-28T00:45:02;19.70;96.90
43651;DHT22;29247;50.944;5.382;2023-07-28T00:47:28;19.70;96.90
43651;DHT22;29247;50.944;5.382;2023-07-28T00:49:54;19.80;96.90
43651;DHT22;29247;50.944;5.382;2023-07-28T00:52:22;19.70;96.90
43651;DHT22;29247;50.944;5.382;2023-07-28T00:54:49;19.70;96.90
43651;DHT22;29247;50.944;5.382;2023-07-28T00:57:15;19.80;97.00
43651;DHT22;29247;50.944;5.382;2023-07-28T00:59:43;19.80;97.00
43651;DHT22;29247;50.944;5.382;2023-07-28T01:02:09;19.80;97.00
43651;DHT22;29247;50.944;5.382;2023-07-28T01:04:34;19.80;97.00
43651;DHT22;29247;50.944;5.382;2023-07-28T01:07:17;19.80;97.00
43651;DHT22;29247;50.944;5.382;2023-07-28T01:09:52;19.80;97.00
43651;DHT22;29247;50.944;5.382;2023-07-28T01:12:19;19.80;97.00
43651;DHT22;29247;50.944;5.382;2023-07-28T01:14:45;19.80;97.30
43651;DHT22;29247;50.944;5.382;2023-07-28T01:17:15;19.80;97.10
43651;DHT22;29247;50.944;5.382;2023-07-28T01:19:43;19.80;97.10
43651;DHT22;29247;50.944;5.382;2023-07-28T01:27:30;19.80;97.10
43651;DHT22;29247;50.944;5.382;2023-07-28T01:29:59;19.80;97.10
43651;DHT22;29247;50.944;5.382;2023-07-28T01:32:25;19.80;97.20
43651;DHT22;29247;50.944;5.382;2023-07-28T01:34:50;19.80;97.20
43651;DHT22;29247;50.944;5.382;2023-07-28T01:37:16;19.80;97.20
43651;DHT22;29247;50.944;5.382;2023-07-28T01:39:44;19.80;97.20
43651;DHT22;29247;50.944;5.382;2023-07-28T01:42:12;19.80;97.20
43651;DHT22;29247;50.944;5.382;2023-07-28T01:44:37;19.80;97.20
43651;DHT22;29247;50.944;5.382;2023-07-28T01:47:03;19.80;97.20
43651;DHT22;29247;50.944;5.382;2023-07-28T01:49:31;19.80;97.20
43651;DHT22;29247;50.944;5.382;2023-07-28T01:51:57;19.80;97.30
43651;DHT22;29247;50.944;5.382;2023-07-28T01:54:27;19.80;97.30
43651;DHT22;29247;50.944;5.382;2023-07-28T01:56:53;19.80;97.30
43651;DHT22;29247;50.944;5.382;2023-07-28T01:59:18;19.80;97.30
43651;DHT22;29247;50.944;5.382;2023-07-28T02:01:45;19.80;97.30
43651;DHT22;29247;50.944;5.382;2023-07-28T02:04:12;19.80;97.40
43651;DHT22;29247;50.944;5.382;2023-07-28T02:06:37;19.80;97.40
43651;DHT22;29247;50.944;5.382;2023-07-28T02:09:04;19.80;97.40
43651;DHT22;29247;50.944;5.382;2023-07-28T02:11:32;19.80;97.40
43651;DHT22;29247;50.944;5.382;2023-07-28T02:13:59;19.80;97.40
43651;DHT22;29247;50.944;5.382;2023-07-28T02:16:25;19.80;97.40
43651;DHT22;29247;50.944;5.382;2023-07-28T02:18:53;19.80;97.50
43651;DHT22;29247;50.944;5.382;2023-07-28T02:21:21;19.80;97.40
43651;DHT22;29247;50.944;5.382;2023-07-28T02:23:47;19.80;97.50
43651;DHT22;29247;50.944;5.382;2023-07-28T02:26:13;19.80;97.50
43651;DHT22;29247;50.944;5.382;2023-07-28T02:28:39;19.80;97.50
43651;DHT22;29247;50.944;5.382;2023-07-28T02:31:04;19.80;97.50
43651;DHT22;29247;50.944;5.382;2023-07-28T02:33:30;19.80;97.50
43651;DHT22;29247;50.944;5.382;2023-07-28T02:35:57;19.80;97.50
43651;DHT22;29247;50.944;5.382;2023-07-28T02:38:53;19.80;97.60
43651;DHT22;29247;50.944;5.382;2023-07-28T02:41:20;19.80;97.60
43651;DHT22;29247;50.944;5.382;2023-07-28T02:43:45;19.80;97.50
43651;DHT22;29247;50.944;5.382;2023-07-28T02:46:11;19.80;97.60
43651;DHT22;29247;50.944;5.382;2023-07-28T02:48:36;19.80;97.60
43651;DHT22;29247;50.944;5.382;2023-07-28T02:51:05;19.80;97.60
43651;DHT22;29247;50.944;5.382;2023-07-28T02:53:30;19.80;97.60
43651;DHT22;29247;50.944;5.382;2023-07-28T02:55:56;19.80;97.60
43651;DHT22;29247;50.944;5.382;2023-07-28T02:58:24;19.80;97.60
43651;DHT22;29247;50.944;5.382;2023-07-28T03:00:51;19.80;97.70
43651;DHT22;29247;50.944;5.382;2023-07-28T03:03:17;19.80;97.70
43651;DHT22;29247;50.944;5.382;2023-07-28T03:05:43;19.80;97.70
43651;DHT22;29247;50.944;5.382;2023-07-28T03:08:08;19.80;97.70
43651;DHT22;29247;50.944;5.382;2023-07-28T03:10:34;19.80;97.70
43651;DHT22;29247;50.944;5.382;2023-07-28T03:13:02;19.80;97.70
43651;DHT22;29247;50.944;5.382;2023-07-28T03:15:28;19.80;97.70
43651;DHT22;29247;50.944;5.382;2023-07-28T03:17:53;19.80;97.70
43651;DHT22;29247;50.944;5.382;2023-07-28T03:20:21;19.90;97.70
43651;DHT22;29247;50.944;5.382;2023-07-28T03:22:51;19.80;97.70
43651;DHT22;29247;50.944;5.382;2023-07-28T03:25:20;19.80;97.80
43651;DHT22;29247;50.944;5.382;2023-07-28T03:27:45;19.80;97.80
43651;DHT22;29247;50.944;5.382;2023-07-28T03:30:11;19.80;97.80
43651;DHT22;29247;50.944;5.382;2023-07-28T03:32:37;19.80;97.80
43651;DHT22;29247;50.944;5.382;2023-07-28T03:35:03;19.80;97.80
43651;DHT22;29247;50.944;5.382;2023-07-28T03:37:31;19.80;97.80
43651;DHT22;29247;50.944;5.382;2023-07-28T03:39:57;19.80;97.80
43651;DHT22;29247;50.944;5.382;2023-07-28T03:42:26;19.90;97.90
43651;DHT22;29247;50.944;5.382;2023-07-28T03:44:54;19.90;97.90
43651;DHT22;29247;50.944;5.382;2023-07-28T03:47:20;19.90;97.90
43651;DHT22;29247;50.944;5.382;2023-07-28T03:49:48;19.90;97.90
43651;DHT22;29247;50.944;5.382;2023-07-28T03:52:13;19.90;97.90
43651;DHT22;29247;50.944;5.382;2023-07-28T03:54:39;19.90;97.90
43651;DHT22;29247;50.944;5.382;2023-07-28T03:57:05;19.90;97.90
43651;DHT22;29247;50.944;5.382;2023-07-28T03:59:31;19.90;97.90
43651;DHT22;29247;50.944;5.382;2023-07-28T04:01:56;19.90;97.90
43651;DHT22;29247;50.944;5.382;2023-07-28T04:04:25;19.90;98.00
43651;DHT22;29247;50.944;5.382;2023-07-28T04:06:53;19.90;98.00
43651;DHT22;29247;50.944;5.382;2023-07-28T04:09:20;19.90;98.00
43651;DHT22;29247;50.944;5.382;2023-07-28T04:11:48;19.90;98.00
43651;DHT22;29247;50.944;5.382;2023-07-28T04:14:14;19.90;98.00
43651;DHT22;29247;50.944;5.382;2023-07-28T04:16:39;19.90;98.00
43651;DHT22;29247;50.944;5.382;2023-07-28T04:19:05;19.90;98.00
43651;DHT22;29247;50.944;5.382;2023-07-28T04:21:33;19.90;98.00
43651;DHT22;29247;50.944;5.382;2023-07-28T04:23:59;19.90;98.00
43651;DHT22;29247;50.944;5.382;2023-07-28T04:26:25;19.90;98.00
43651;DHT22;29247;50.944;5.382;2023-07-28T04:28:50;19.90;98.00
43651;DHT22;29247;50.944;5.382;2023-07-28T04:31:19;19.90;98.00
43651;DHT22;29247;50.944;5.382;2023-07-28T04:33:44;19.90;98.00
43651;DHT22;29247;50.944;5.382;2023-07-28T04:36:10;19.90;98.00
43651;DHT22;29247;50.944;5.382;2023-07-28T04:38:35;19.90;98.00
43651;DHT22;29247;50.944;5.382;2023-07-28T04:41:03;19.90;97.80
43651;DHT22;29247;50.944;5.382;2023-07-28T04:43:31;19.90;98.00
43651;DHT22;29247;50.944;5.382;2023-07-28T04:46:01;20.00;98.00
43651;DHT22;29247;50.944;5.382;2023-07-28T04:48:27;20.00;98.10
43651;DHT22;29247;50.944;5.382;2023-07-28T04:50:53;20.00;98.10
43651;DHT22;29247;50.944;5.382;2023-07-28T04:53:21;20.00;98.10
43651;DHT22;29247;50.944;5.382;2023-07-28T04:55:47;20.00;98.00
43651;DHT22;29247;50.944;5.382;2023-07-28T04:58:15;20.00;98.00
43651;DHT22;29247;50.944;5.382;2023-07-28T05:00:43;20.00;98.00
43651;DHT22;29247;50.944;5.382;2023-07-28T05:03:11;20.00;98.00
43651;DHT22;29247;50.944;5.382;2023-07-28T05:05:36;20.00;97.90
43651;DHT22;29247;50.944;5.382;2023-07-28T05:08:02;20.00;97.90
43651;DHT22;29247;50.944;5.382;2023-07-28T05:10:28;20.00;98.00
43651;DHT22;29247;50.944;5.382;2023-07-28T05:12:56;20.00;98.00
43651;DHT22;29247;50.944;5.382;2023-07-28T05:15:21;20.00;98.10
43651;DHT22;29247;50.944;5.382;2023-07-28T05:17:49;20.00;98.10
43651;DHT22;29247;50.944;5.382;2023-07-28T05:20:14;20.00;98.10
43651;DHT22;29247;50.944;5.382;2023-07-28T05:22:41;20.00;98.10
43651;DHT22;29247;50.944;5.382;2023-07-28T05:25:07;20.00;98.10
43651;DHT22;29247;50.944;5.382;2023-07-28T05:27:33;20.00;98.10
43651;DHT22;29247;50.944;5.382;2023-07-28T05:30:01;20.00;98.10
43651;DHT22;29247;50.944;5.382;2023-07-28T05:32:29;20.00;98.10
43651;DHT22;29247;50.944;5.382;2023-07-28T05:34:54;20.10;98.10
43651;DHT22;29247;50.944;5.382;2023-07-28T05:37:20;20.10;98.10
43651;DHT22;29247;50.944;5.382;2023-07-28T05:39:52;20.10;98.10
43651;DHT22;29247;50.944;5.382;2023-07-28T05:42:22;20.10;98.10
43651;DHT22;29247;50.944;5.382;2023-07-28T05:44:49;20.10;98.10
43651;DHT22;29247;50.944;5.382;2023-07-28T05:47:20;20.10;98.10
43651;DHT22;29247;50.944;5.382;2023-07-28T05:49:47;20.10;98.10
43651;DHT22;29247;50.944;5.382;2023-07-28T05:52:13;20.10;98.00
43651;DHT22;29247;50.944;5.382;2023-07-28T05:54:41;20.10;98.10
43651;DHT22;29247;50.944;5.382;2023-07-28T05:57:07;20.10;98.10
43651;DHT22;29247;50.944;5.382;2023-07-28T05:59:33;20.10;98.20
43651;DHT22;29247;50.944;5.382;2023-07-28T06:01:58;20.10;98.20
43651;DHT22;29247;50.944;5.382;2023-07-28T06:04:26;20.10;98.20
43651;DHT22;29247;50.944;5.382;2023-07-28T06:06:52;20.10;98.30
43651;DHT22;29247;50.944;5.382;2023-07-28T06:09:17;20.10;98.30
43651;DHT22;29247;50.944;5.382;2023-07-28T06:11:45;20.20;98.30
43651;DHT22;29247;50.944;5.382;2023-07-28T06:14:11;20.20;98.30
43651;DHT22;29247;50.944;5.382;2023-07-28T06:16:37;20.10;98.30
43651;DHT22;29247;50.944;5.382;2023-07-28T06:19:02;20.20;98.30
43651;DHT22;29247;50.944;5.382;2023-07-28T06:21:32;20.20;98.20
43651;DHT22;29247;50.944;5.382;2023-07-28T06:24:00;20.20;98.60
43651;DHT22;29247;50.944;5.382;2023-07-28T06:26:30;20.20;98.20
43651;DHT22;29247;50.944;5.382;2023-07-28T06:28:55;20.20;98.20
43651;DHT22;29247;50.944;5.382;2023-07-28T06:31:21;20.30;98.30
43651;DHT22;29247;50.944;5.382;2023-07-28T06:33:47;20.20;98.20
43651;DHT22;29247;50.944;5.382;2023-07-28T06:36:15;20.30;98.20
43651;DHT22;29247;50.944;5.382;2023-07-28T06:38:41;20.30;98.30
43651;DHT22;29247;50.944;5.382;2023-07-28T06:41:09;20.30;98.20
43651;DHT22;29247;50.944;5.382;2023-07-28T06:43:34;20.30;98.60
43651;DHT22;29247;50.944;5.382;2023-07-28T06:46:00;20.30;98.20
43651;DHT22;29247;50.944;5.382;2023-07-28T06:48:26;20.30;98.20
43651;DHT22;29247;50.944;5.382;2023-07-28T06:50:54;20.40;98.30
43651;DHT22;29247;50.944;5.382;2023-07-28T06:53:20;20.40;98.30
43651;DHT22;29247;50.944;5.382;2023-07-28T06:55:45;20.40;98.30
43651;DHT22;29247;50.944;5.382;2023-07-28T06:58:11;20.40;98.30
43651;DHT22;29247;50.944;5.382;2023-07-28T07:00:37;20.40;98.30
43651;DHT22;29247;50.944;5.382;2023-07-28T07:03:05;20.40;98.30
43651;DHT22;29247;50.944;5.382;2023-07-28T07:05:31;20.40;98.30
43651;DHT22;29247;50.944;5.382;2023-07-28T07:07:59;20.50;98.30
43651;DHT22;29247;50.944;5.382;2023-07-28T07:10:27;20.50;98.30
43651;DHT22;29247;50.944;5.382;2023-07-28T07:12:52;20.50;98.20
43651;DHT22;29247;50.944;5.382;2023-07-28T07:15:18;20.60;98.30
43651;DHT22;29247;50.944;5.382;2023-07-28T07:17:43;20.60;98.30
43651;DHT22;29247;50.944;5.382;2023-07-28T07:20:14;20.60;98.40
43651;DHT22;29247;50.944;5.382;2023-07-28T07:22:41;20.60;98.40
43651;DHT22;29247;50.944;5.382;2023-07-28T07:25:07;20.70;98.40
43651;DHT22;29247;50.944;5.382;2023-07-28T07:27:33;20.70;98.40
43651;DHT22;29247;50.944;5.382;2023-07-28T07:29:58;20.70;98.30
43651;DHT22;29247;50.944;5.382;2023-07-28T07:32:24;20.80;98.30
43651;DHT22;29247;50.944;5.382;2023-07-28T07:34:50;20.80;98.30
43651;DHT22;29247;50.944;5.382;2023-07-28T07:37:15;20.80;98.30
43651;DHT22;29247;50.944;5.382;2023-07-28T07:39:46;20.90;98.30
43651;DHT22;29247;50.944;5.382;2023-07-28T07:42:12;20.90;98.30
43651;DHT22;29247;50.944;5.382;2023-07-28T07:44:39;20.90;98.30
43651;DHT22;29247;50.944;5.382;2023-07-28T07:47:14;20.90;98.40
43651;DHT22;29247;50.944;5.382;2023-07-28T07:49:41;21.00;98.60
43651;DHT22;29247;50.944;5.382;2023-07-28T07:52:09;21.10;99.10
43651;DHT22;29247;50.944;5.382;2023-07-28T07:54:37;21.30;99.90
43651;DHT22;29247;50.944;5.382;2023-07-28T07:57:04;21.40;99.90
43651;DHT22;29247;50.944;5.382;2023-07-28T07:59:29;21.60;99.90
43651;DHT22;29247;50.944;5.382;2023-07-28T08:01:58;21.70;99.90
43651;DHT22;29247;50.944;5.382;2023-07-28T08:04:25;21.90;99.90
43651;DHT22;29247;50.944;5.382;2023-07-28T08:06:53;22.00;99.40
43651;DHT22;29247;50.944;5.382;2023-07-28T08:09:19;22.00;98.70
43651;DHT22;29247;50.944;5.382;2023-07-28T08:11:45;22.10;97.90
43651;DHT22;29247;50.944;5.382;2023-07-28T08:14:15;22.10;97.40
43651;DHT22;29247;50.944;5.382;2023-07-28T08:16:40;22.10;96.90
43651;DHT22;29247;50.944;5.382;2023-07-28T08:19:06;22.10;96.40
43651;DHT22;29247;50.944;5.382;2023-07-28T08:21:34;22.10;96.10
43651;DHT22;29247;50.944;5.382;2023-07-28T08:24:02;22.00;96.00
43651;DHT22;29247;50.944;5.382;2023-07-28T08:26:32;22.00;95.90
43651;DHT22;29247;50.944;5.382;2023-07-28T08:28:57;22.00;96.10
43651;DHT22;29247;50.944;5.382;2023-07-28T08:31:25;22.00;96.10
43651;DHT22;29247;50.944;5.382;2023-07-28T08:33:53;22.00;95.90
43651;DHT22;29247;50.944;5.382;2023-07-28T08:36:19;22.00;95.90
43651;DHT22;29247;50.944;5.382;2023-07-28T08:38:44;22.00;95.80
43651;DHT22;29247;50.944;5.382;2023-07-28T08:41:11;22.00;95.70
43651;DHT22;29247;50.944;5.382;2023-07-28T08:43:40;22.00;95.40
43651;DHT22;29247;50.944;5.382;2023-07-28T08:46:05;22.00;95.40
43651;DHT22;29247;50.944;5.382;2023-07-28T08:48:34;21.90;95.20
43651;DHT22;29247;50.944;5.382;2023-07-28T08:50:59;21.90;95.20
43651;DHT22;29247;50.944;5.382;2023-07-28T08:53:25;21.90;95.20
43651;DHT22;29247;50.944;5.382;2023-07-28T08:55:51;21.80;95.30
43651;DHT22;29247;50.944;5.382;2023-07-28T08:58:22;21.80;95.40
43651;DHT22;29247;50.944;5.382;2023-07-28T09:00:48;21.80;95.70
43651;DHT22;29247;50.944;5.382;2023-07-28T09:03:16;21.90;96.00
43651;DHT22;29247;50.944;5.382;2023-07-28T09:05:45;21.90;96.40
43651;DHT22;29247;50.944;5.382;2023-07-28T09:08:15;22.00;96.60
43651;DHT22;29247;50.944;5.382;2023-07-28T09:13:18;22.20;96.10
43651;DHT22;29247;50.944;5.382;2023-07-28T09:15:46;22.30;95.80
43651;DHT22;29247;50.944;5.382;2023-07-28T09:18:17;22.20;95.40
43651;DHT22;29247;50.944;5.382;2023-07-28T09:20:43;22.20;95.30
43651;DHT22;29247;50.944;5.382;2023-07-28T09:23:10;22.20;94.80
43651;DHT22;29247;50.944;5.382;2023-07-28T09:25:38;22.10;94.80
43651;DHT22;29247;50.944;5.382;2023-07-28T09:28:04;22.10;94.90
43651;DHT22;29247;50.944;5.382;2023-07-28T09:30:47;22.00;95.00
43651;DHT22;29247;50.944;5.382;2023-07-28T09:33:13;22.00;95.10
43651;DHT22;29247;50.944;5.382;2023-07-28T09:35:49;22.00;95.30
43651;DHT22;29247;50.944;5.382;2023-07-28T09:38:18;22.00;95.40
43651;DHT22;29247;50.944;5.382;2023-07-28T09:40:44;22.10;95.10
43651;DHT22;29247;50.944;5.382;2023-07-28T09:43:10;22.00;95.10
43651;DHT22;29247;50.944;5.382;2023-07-28T09:45:40;22.00;95.30
43651;DHT22;29247;50.944;5.382;2023-07-28T09:48:06;22.00;95.60
43651;DHT22;29247;50.944;5.382;2023-07-28T09:50:37;22.10;95.70
43651;DHT22;29247;50.944;5.382;2023-07-28T09:53:04;22.10;95.70
43651;DHT22;29247;50.944;5.382;2023-07-28T09:55:30;22.10;95.60
43651;DHT22;29247;50.944;5.382;2023-07-28T09:57:57;22.10;95.40
43651;DHT22;29247;50.944;5.382;2023-07-28T10:00:25;22.10;95.40
43651;DHT22;29247;50.944;5.382;2023-07-28T10:02:52;22.00;95.20
43651;DHT22;29247;50.944;5.382;2023-07-28T10:05:21;21.90;95.20
43651;DHT22;29247;50.944;5.382;2023-07-28T10:07:48;21.90;95.20
43651;DHT22;29247;50.944;5.382;2023-07-28T10:10:19;21.90;95.20
43651;DHT22;29247;50.944;5.382;2023-07-28T10:12:49;21.90;95.50
43651;DHT22;29247;50.944;5.382;2023-07-28T10:15:20;21.90;95.70
43651;DHT22;29247;50.944;5.382;2023-07-28T10:17:56;21.90;95.80
43651;DHT22;29247;50.944;5.382;2023-07-28T10:22:54;22.00;95.80
43651;DHT22;29247;50.944;5.382;2023-07-28T10:25:26;22.00;95.80
43651;DHT22;29247;50.944;5.382;2023-07-28T10:27:53;22.00;95.70
43651;DHT22;29247;50.944;5.382;2023-07-28T10:30:19;22.00;95.70
43651;DHT22;29247;50.944;5.382;2023-07-28T10:32:49;22.00;95.70
43651;DHT22;29247;50.944;5.382;2023-07-28T10:37:46;22.00;95.80
43651;DHT22;29247;50.944;5.382;2023-07-28T10:42:51;22.00;96.00
43651;DHT22;29247;50.944;5.382;2023-07-28T10:45:19;22.00;96.10
43651;DHT22;29247;50.944;5.382;2023-07-28T10:47:45;22.00;96.20
43651;DHT22;29247;50.944;5.382;2023-07-28T10:50:13;22.10;96.40
43651;DHT22;29247;50.944;5.382;2023-07-28T10:52:43;22.10;96.50
43651;DHT22;29247;50.944;5.382;2023-07-28T10:55:17;22.20;96.60
43651;DHT22;29247;50.944;5.382;2023-07-28T10:57:44;22.20;96.80
43651;DHT22;29247;50.944;5.382;2023-07-28T11:00:11;22.30;96.70
43651;DHT22;29247;50.944;5.382;2023-07-28T11:02:40;22.40;96.40
43651;DHT22;29247;50.944;5.382;2023-07-28T11:05:10;22.40;96.10
43651;DHT22;29247;50.944;5.382;2023-07-28T11:07:41;22.40;96.00
43651;DHT22;29247;50.944;5.382;2023-07-28T11:10:09;22.40;96.00
43651;DHT22;29247;50.944;5.382;2023-07-28T11:12:39;22.40;96.20
43651;DHT22;29247;50.944;5.382;2023-07-28T11:15:12;22.40;96.20
43651;DHT22;29247;50.944;5.382;2023-07-28T11:17:46;22.40;96.10
43651;DHT22;29247;50.944;5.382;2023-07-28T11:22:51;22.40;95.70
43651;DHT22;29247;50.944;5.382;2023-07-28T11:25:17;22.40;95.70
43651;DHT22;29247;50.944;5.382;2023-07-28T11:27:45;22.40;95.70
43651;DHT22;29247;50.944;5.382;2023-07-28T11:30:15;22.30;95.70
43651;DHT22;29247;50.944;5.382;2023-07-28T11:32:44;22.40;96.00
43651;DHT22;29247;50.944;5.382;2023-07-28T11:35:12;22.40;96.40
43651;DHT22;29247;50.944;5.382;2023-07-28T11:37:39;22.40;96.70
43651;DHT22;29247;50.944;5.382;2023-07-28T11:40:07;22.50;96.90
43651;DHT22;29247;50.944;5.382;2023-07-28T11:42:44;22.60;97.00
43651;DHT22;29247;50.944;5.382;2023-07-28T11:45:14;22.70;97.10
43651;DHT22;29247;50.944;5.382;2023-07-28T11:47:55;22.80;97.00
43651;DHT22;29247;50.944;5.382;2023-07-28T11:50:41;22.90;97.30
43651;DHT22;29247;50.944;5.382;2023-07-28T11:53:08;22.90;96.70
43651;DHT22;29247;50.944;5.382;2023-07-28T11:55:40;23.00;96.40
43651;DHT22;29247;50.944;5.382;2023-07-28T11:58:09;23.00;96.20
43651;DHT22;29247;50.944;5.382;2023-07-28T12:00:39;23.00;96.10
43651;DHT22;29247;50.944;5.382;2023-07-28T12:03:10;23.00;96.00
43651;DHT22;29247;50.944;5.382;2023-07-28T12:05:41;23.00;95.70
43651;DHT22;29247;50.944;5.382;2023-07-28T12:08:07;23.00;95.60
43651;DHT22;29247;50.944;5.382;2023-07-28T12:10:33;23.00;95.40
43651;DHT22;29247;50.944;5.382;2023-07-28T12:13:08;23.00;95.20
43651;DHT22;29247;50.944;5.382;2023-07-28T12:15:40;23.00;95.10
43651;DHT22;29247;50.944;5.382;2023-07-28T12:20:50;22.90;94.80
43651;DHT22;29247;50.944;5.382;2023-07-28T12:23:21;22.80;94.80
43651;DHT22;29247;50.944;5.382;2023-07-28T12:25:48;22.80;94.60
43651;DHT22;29247;50.944;5.382;2023-07-28T12:28:15;22.70;94.60
43651;DHT22;29247;50.944;5.382;2023-07-28T12:30:44;22.70;94.50
43651;DHT22;29247;50.944;5.382;2023-07-28T12:33:09;22.70;94.60
43651;DHT22;29247;50.944;5.382;2023-07-28T12:35:36;22.60;94.70
43651;DHT22;29247;50.944;5.382;2023-07-28T12:38:03;22.60;94.70
43651;DHT22;29247;50.944;5.382;2023-07-28T12:40:34;22.60;94.70
43651;DHT22;29247;50.944;5.382;2023-07-28T12:43:03;22.60;94.90
43651;DHT22;29247;50.944;5.382;2023-07-28T12:45:33;22.60;95.00
43651;DHT22;29247;50.944;5.382;2023-07-28T12:48:01;22.60;95.10
43651;DHT22;29247;50.944;5.382;2023-07-28T12:50:26;22.60;95.00
43651;DHT22;29247;50.944;5.382;2023-07-28T12:52:52;22.60;95.20
43651;DHT22;29247;50.944;5.382;2023-07-28T12:55:18;22.60;95.40
43651;DHT22;29247;50.944;5.382;2023-07-28T12:57:44;22.70;95.50
43651;DHT22;29247;50.944;5.382;2023-07-28T13:00:10;22.70;95.40
43651;DHT22;29247;50.944;5.382;2023-07-28T13:02:42;22.70;95.30
43651;DHT22;29247;50.944;5.382;2023-07-28T13:05:09;22.80;95.30
43651;DHT22;29247;50.944;5.382;2023-07-28T13:07:38;22.80;95.30
43651;DHT22;29247;50.944;5.382;2023-07-28T13:10:10;22.80;95.30
43651;DHT22;29247;50.944;5.382;2023-07-28T13:12:36;22.80;95.20
43651;DHT22;29247;50.944;5.382;2023-07-28T13:15:02;22.80;95.20
43651;DHT22;29247;50.944;5.382;2023-07-28T13:17:28;22.80;95.20
43651;DHT22;29247;50.944;5.382;2023-07-28T13:19:56;22.80;95.20
43651;DHT22;29247;50.944;5.382;2023-07-28T13:22:23;22.80;95.30
43651;DHT22;29247;50.944;5.382;2023-07-28T13:24:48;22.90;95.40
43651;DHT22;29247;50.944;5.382;2023-07-28T13:27:14;22.90;95.40
43651;DHT22;29247;50.944;5.382;2023-07-28T13:29:40;23.00;95.40
43651;DHT22;29247;50.944;5.382;2023-07-28T13:32:26;23.00;95.40
43651;DHT22;29247;50.944;5.382;2023-07-28T13:34:52;23.00;95.30
43651;DHT22;29247;50.944;5.382;2023-07-28T13:37:21;23.00;95.10
43651;DHT22;29247;50.944;5.382;2023-07-28T13:39:48;23.00;95.30
43651;DHT22;29247;50.944;5.382;2023-07-28T13:42:17;23.00;95.50
43651;DHT22;29247;50.944;5.382;2023-07-28T13:44:45;23.10;95.70
43651;DHT22;29247;50.944;5.382;2023-07-28T13:47:11;23.10;95.80
43651;DHT22;29247;50.944;5.382;2023-07-28T13:49:36;23.20;95.80
43651;DHT22;29247;50.944;5.382;2023-07-28T13:52:03;23.30;95.80
43651;DHT22;29247;50.944;5.382;2023-07-28T13:54:29;23.40;95.60
43651;DHT22;29247;50.944;5.382;2023-07-28T13:56:59;23.50;95.70
43651;DHT22;29247;50.944;5.382;2023-07-28T13:59:25;23.60;95.70
43651;DHT22;29247;50.944;5.382;2023-07-28T14:01:51;23.70;95.30
43651;DHT22;29247;50.944;5.382;2023-07-28T14:04:20;23.80;94.50
43651;DHT22;29247;50.944;5.382;2023-07-28T14:06:45;23.90;94.10
43651;DHT22;29247;50.944;5.382;2023-07-28T14:09:13;23.90;93.70
43651;DHT22;29247;50.944;5.382;2023-07-28T14:11:41;24.00;93.80
43651;DHT22;29247;50.944;5.382;2023-07-28T14:14:07;24.00;93.50
43651;DHT22;29247;50.944;5.382;2023-07-28T14:16:35;24.10;93.10
43651;DHT22;29247;50.944;5.382;2023-07-28T14:19:00;24.10;92.80
43651;DHT22;29247;50.944;5.382;2023-07-28T14:21:27;24.20;92.80
43651;DHT22;29247;50.944;5.382;2023-07-28T14:23:52;24.20;92.90
43651;DHT22;29247;50.944;5.382;2023-07-28T14:26:18;24.30;92.60
43651;DHT22;29247;50.944;5.382;2023-07-28T14:28:44;24.30;92.10
43651;DHT22;29247;50.944;5.382;2023-07-28T14:31:09;24.30;91.90
43651;DHT22;29247;50.944;5.382;2023-07-28T14:33:35;24.30;92.00
43651;DHT22;29247;50.944;5.382;2023-07-28T14:36:00;24.30;92.30
43651;DHT22;29247;50.944;5.382;2023-07-28T14:38:26;24.40;92.30
43651;DHT22;29247;50.944;5.382;2023-07-28T14:40:52;24.40;92.10
43651;DHT22;29247;50.944;5.382;2023-07-28T14:43:18;24.40;91.90
43651;DHT22;29247;50.944;5.382;2023-07-28T14:45:46;24.30;91.70
43651;DHT22;29247;50.944;5.382;2023-07-28T14:48:16;24.40;91.70
43651;DHT22;29247;50.944;5.382;2023-07-28T14:50:44;24.40;91.70
43651;DHT22;29247;50.944;5.382;2023-07-28T14:53:33;24.40;91.50
43651;DHT22;29247;50.944;5.382;2023-07-28T14:56:03;24.40;91.30
43651;DHT22;29247;50.944;5.382;2023-07-28T14:58:30;24.30;91.00
43651;DHT22;29247;50.944;5.382;2023-07-28T15:00:56;24.30;90.90
43651;DHT22;29247;50.944;5.382;2023-07-28T15:03:23;24.20;91.00
43651;DHT22;29247;50.944;5.382;2023-07-28T15:05:48;24.20;91.10
43651;DHT22;29247;50.944;5.382;2023-07-28T15:08:14;24.20;91.10
43651;DHT22;29247;50.944;5.382;2023-07-28T15:10:41;24.20;90.80
43651;DHT22;29247;50.944;5.382;2023-07-28T15:13:07;24.10;90.70
43651;DHT22;29247;50.944;5.382;2023-07-28T15:15:32;24.10;90.80
43651;DHT22;29247;50.944;5.382;2023-07-28T15:17:58;24.10;90.50
43651;DHT22;29247;50.944;5.382;2023-07-28T15:20:24;24.00;90.40
43651;DHT22;29247;50.944;5.382;2023-07-28T15:22:54;24.00;90.50
43651;DHT22;29247;50.944;5.382;2023-07-28T15:25:20;24.10;90.80
43651;DHT22;29247;50.944;5.382;2023-07-28T15:27:48;24.20;91.00
43651;DHT22;29247;50.944;5.382;2023-07-28T15:30:15;24.20;90.40
43651;DHT22;29247;50.944;5.382;2023-07-28T15:32:41;24.30;90.20
43651;DHT22;29247;50.944;5.382;2023-07-28T15:35:07;24.30;90.00
43651;DHT22;29247;50.944;5.382;2023-07-28T15:37:38;24.40;89.40
43651;DHT22;29247;50.944;5.382;2023-07-28T15:40:05;24.40;88.70
43651;DHT22;29247;50.944;5.382;2023-07-28T15:42:30;24.40;87.80
43651;DHT22;29247;50.944;5.382;2023-07-28T15:44:56;24.40;85.90
43651;DHT22;29247;50.944;5.382;2023-07-28T15:47:22;24.40;86.10
43651;DHT22;29247;50.944;5.382;2023-07-28T15:49:50;24.40;84.40
43651;DHT22;29247;50.944;5.382;2023-07-28T15:52:19;24.40;82.80